TimeAST,TemperatureF,Dew PointF,Humidity,Sea Level PressureIn,VisibilityMPH,Wind Direction,Wind SpeedMPH,Gust SpeedMPH,PrecipitationIn,Events,Conditions,WindDirDegrees,DateUTC
12:00 AM,78.8,71.6,78,29.98,-9999.0,North,-9999.0,-,N/A,,Unknown,0,2013-02-03 04:00:00
2:00 AM,77.0,71.6,83,29.92,-9999.0,NE,5.8,-,N/A,,Unknown,50,2013-02-03 06:00:00
3:00 AM,75.2,71.6,89,29.89,-9999.0,NE,4.6,-,N/A,,Unknown,40,2013-02-03 07:00:00
5:00 AM,76,72,82,,,East,4.6,,,,Clear,90,2013-02-03 09:00:00
5:00 AM,75.2,71.6,89,29.89,-9999.0,East,5.8,-,N/A,,Unknown,80,2013-02-03 09:00:00
6:00 AM,75.2,73.4,94,29.92,-9999.0,East,5.8,-,N/A,,Unknown,90,2013-02-03 10:00:00
7:00 AM,73.4,71.6,94,29.92,-9999.0,Variable,3.5,-,N/A,,Unknown,0,2013-02-03 11:00:00
9:00 AM,82.4,75.2,79,29.95,6.2,ESE,9.2,-,N/A,,Scattered Clouds,110,2013-02-03 13:00:00
10:00 AM,84.2,73.4,70,29.95,6.2,East,8.1,-,N/A,,Scattered Clouds,90,2013-02-03 14:00:00
11:00 AM,84.2,73.4,70,29.95,6.2,ESE,10.4,-,N/A,,Scattered Clouds,120,2013-02-03 15:00:00
12:00 PM,84.2,73.4,70,29.95,6.2,ESE,11.5,-,N/A,,Scattered Clouds,120,2013-02-03 16:00:00
2:00 PM,84,73,62,29.92,22,ESE,12.7,,,,Partly Cloudy,120,2013-02-03 18:00:00
2:00 PM,84.2,73.4,70,29.89,6.2,ESE,12.7,-,N/A,,Scattered Clouds,110,2013-02-03 18:00:00
3:00 PM,84.2,73.4,70,29.86,6.2,ESE,11.5,-,N/A,,Scattered Clouds,120,2013-02-03 19:00:00
4:00 PM,86.0,73.4,66,29.86,-9999.0,ESE,13.8,-,N/A,,Unknown,110,2013-02-03 20:00:00
5:00 PM,81,73,71,29.89,22,East,15.0,,,,Mostly Cloudy,90,2013-02-03 21:00:00
5:00 PM,80.6,73.4,79,29.86,6.2,East,15.0,-,N/A,,Mostly Cloudy,90,2013-02-03 21:00:00
6:00 PM,78.8,73.4,83,29.89,6.2,East,15.0,-,N/A,,Mostly Cloudy,90,2013-02-03 22:00:00
7:00 PM,78.8,73.4,83,29.89,-9999.0,East,18.4,-,N/A,,Unknown,100,2013-02-03 23:00:00
8:00 PM,78,73,80,,6,East,11.5,,,,Clear,100,2013-02-04 00:00:00
8:00 PM,78.8,73.4,83,29.92,6.2,East,11.5,-,N/A,,Scattered Clouds,100,2013-02-04 00:00:00
9:00 PM,77.0,71.6,83,29.92,-9999.0,East,11.5,-,N/A,,Unknown,90,2013-02-04 01:00:00
10:00 PM,77.0,71.6,83,29.95,-9999.0,East,11.5,-,N/A,,Unknown,80,2013-02-04 02:00:00
11:00 PM,-9999,-9999,N/A,29.95,6.2,East,11.5,-,N/A,,Unknown,90,2013-02-04 03:00:00